createdAt,value
2019-05-06T00:02:09.870Z,57.95
2019-05-06T00:04:44.708Z,58.31
2019-05-06T00:07:17.080Z,61.17
2019-05-06T00:09:49.860Z,59.87
2019-05-06T00:12:24.005Z,59.68
2019-05-06T00:14:56.816Z,61.66
2019-05-06T00:17:29.385Z,59.83
2019-05-06T00:20:04.123Z,61.28
2019-05-06T00:22:36.176Z,60.20
2019-05-06T00:25:14.088Z,59.53
2019-05-06T00:27:54.296Z,61.08
2019-05-06T00:30:26.487Z,59.18
2019-05-06T00:32:58.836Z,60.91
2019-05-06T00:35:31.444Z,59.21
2019-05-06T00:38:04.499Z,58.93
2019-05-06T00:40:54.775Z,60.65
2019-05-06T00:43:27.414Z,59.22
2019-05-06T00:46:00.770Z,60.15
2019-05-06T00:48:34.098Z,60.71
2019-05-06T00:51:07.198Z,60.41
2019-05-06T00:53:43.915Z,66.79
2019-05-06T00:56:16.595Z,63.68
2019-05-06T00:58:49.154Z,57.66
2019-05-06T01:01:26.977Z,50.71
2019-05-06T01:03:56.254Z,50.79
2019-05-06T01:06:29.056Z,51.17
2019-05-06T01:09:04.596Z,52.21
2019-05-06T01:11:39.121Z,53.21
2019-05-06T01:14:14.812Z,54.06
2019-05-06T01:16:47.745Z,54.89
2019-05-06T01:19:20.185Z,55.69
2019-05-06T01:21:54.014Z,56.57
2019-05-06T01:24:27.205Z,57.36
2019-05-06T01:26:59.940Z,58.37
2019-05-06T01:29:34.622Z,59.05
2019-05-06T01:32:06.845Z,59.60
2019-05-06T01:34:39.330Z,62.00
2019-05-06T01:37:14.270Z,60.90
2019-05-06T01:39:54.184Z,65.21
2019-05-06T01:42:46.870Z,65.41
2019-05-06T01:45:19.965Z,59.34
2019-05-06T01:47:54.339Z,52.78
2019-05-06T01:50:27.035Z,52.35
2019-05-06T01:52:59.795Z,52.45
2019-05-06T01:55:34.211Z,53.34
2019-05-06T01:58:06.873Z,54.28
2019-05-06T02:00:39.661Z,54.99
2019-05-06T02:03:14.730Z,55.93
2019-05-06T02:05:47.259Z,56.81
2019-05-06T02:08:20.000Z,57.44
2019-05-06T02:10:54.555Z,58.11
2019-05-06T02:13:27.185Z,58.90
2019-05-06T02:15:59.875Z,62.46
2019-05-06T02:18:33.970Z,65.89
2019-05-06T02:21:08.485Z,61.60
2019-05-06T02:23:44.148Z,55.71
2019-05-06T02:26:16.926Z,50.35
2019-05-06T02:28:51.095Z,50.25
2019-05-06T02:31:41.586Z,50.27
2019-05-06T02:34:25.900Z,51.26
2019-05-06T02:37:16.375Z,52.37
2019-05-06T02:39:49.126Z,53.63
2019-05-06T02:42:23.937Z,54.89
2019-05-06T02:44:56.218Z,56.25
2019-05-06T02:47:37.256Z,57.32
2019-05-06T02:50:14.616Z,58.52
2019-05-06T02:52:47.301Z,59.14
2019-05-06T02:55:19.853Z,62.50
2019-05-06T02:57:53.635Z,66.28
2019-05-06T03:00:26.732Z,62.35
2019-05-06T03:03:02.730Z,55.84
2019-05-06T03:05:33.825Z,50.36
2019-05-06T03:08:06.480Z,49.90
2019-05-06T03:10:39.236Z,50.56
2019-05-06T03:13:14.240Z,51.22
2019-05-06T03:15:46.445Z,52.39
2019-05-06T03:18:19.250Z,53.51
2019-05-06T03:20:59.903Z,54.58
2019-05-06T03:23:43.312Z,55.53
2019-05-06T03:26:14.529Z,56.24
2019-05-06T03:28:47.156Z,57.77
2019-05-06T03:31:25.307Z,58.40
2019-05-06T03:34:13.207Z,61.31
2019-05-06T03:36:34.918Z,59.43
2019-05-06T03:39:05.762Z,62.32
2019-05-06T03:41:38.872Z,65.73
2019-05-06T03:44:16.286Z,60.93
2019-05-06T03:46:54.432Z,55.43
2019-05-06T03:49:28.790Z,50.14
2019-05-06T03:52:02.788Z,50.09
2019-05-06T03:54:37.295Z,50.84
2019-05-06T03:57:09.898Z,52.08
2019-05-06T03:59:43.557Z,53.10
2019-05-06T04:02:17.796Z,54.09
2019-05-06T04:04:55.824Z,54.29
2019-05-06T04:07:25.280Z,55.34
2019-05-06T04:09:58.014Z,56.23
2019-05-06T04:12:33.668Z,56.84
2019-05-06T04:15:07.792Z,57.58
2019-05-06T04:17:43.803Z,58.00
2019-05-06T04:20:16.977Z,58.77
2019-05-06T04:22:53.256Z,59.54
2019-05-06T04:25:44.800Z,60.51
2019-05-06T04:28:19.100Z,61.79
2019-05-06T04:30:54.564Z,62.45
2019-05-06T04:33:27.123Z,66.80
2019-05-06T04:36:03.393Z,59.39
2019-05-06T04:38:35.335Z,52.82
2019-05-06T04:41:08.141Z,51.50
2019-05-06T04:43:43.619Z,51.15
2019-05-06T04:46:16.935Z,51.40
2019-05-06T04:48:49.727Z,51.31
2019-05-06T04:51:24.791Z,51.49
2019-05-06T04:53:57.389Z,51.23
2019-05-06T04:56:33.174Z,50.12
2019-05-06T04:59:06.240Z,49.70
2019-05-06T05:01:39.545Z,49.55
2019-05-06T05:04:24.658Z,49.71
2019-05-06T05:06:48.136Z,48.75
2019-05-06T05:09:23.083Z,47.93
2019-05-06T05:11:58.158Z,46.99
2019-05-06T05:14:38.335Z,45.56
2019-05-06T05:17:28.020Z,44.98
2019-05-06T05:20:02.127Z,43.19
2019-05-06T05:22:35.730Z,42.15
2019-05-06T05:25:09.075Z,41.40
2019-05-06T05:27:42.190Z,41.32
2019-05-06T05:30:15.760Z,40.90
2019-05-06T05:32:49.086Z,40.67
2019-05-06T05:35:22.719Z,38.21
2019-05-06T05:37:56.949Z,38.61
2019-05-06T05:40:32.068Z,39.53
2019-05-06T05:43:09.081Z,38.42
2019-05-06T05:45:42.411Z,38.90
2019-05-06T05:48:28.810Z,38.36
2019-05-06T05:51:03.285Z,36.90
2019-05-06T05:53:36.064Z,38.10
2019-05-06T05:56:09.261Z,39.22
2019-05-06T05:58:42.527Z,38.02
2019-05-06T06:01:15.228Z,37.48
2019-05-06T06:03:48.125Z,37.61
2019-05-06T06:06:22.160Z,38.56
2019-05-06T06:08:56.540Z,39.01
2019-05-06T06:11:33.389Z,38.60
2019-05-06T06:14:07.758Z,40.16
2019-05-06T06:16:42.320Z,39.95
2019-05-06T06:19:22.129Z,39.65
2019-05-06T06:21:56.537Z,40.63
2019-05-06T06:24:32.229Z,40.07
2019-05-06T06:27:05.859Z,41.22
2019-05-06T06:29:38.374Z,41.16
2019-05-06T06:32:27.936Z,38.95
2019-05-06T06:35:11.487Z,37.80
2019-05-06T06:37:53.220Z,37.87
2019-05-06T06:40:26.800Z,36.80
2019-05-06T06:43:02.206Z,37.75
2019-05-06T06:45:35.650Z,37.22
2019-05-06T06:48:08.630Z,36.98
2019-05-06T06:50:42.643Z,38.15
2019-05-06T06:53:15.596Z,36.87
2019-05-06T06:55:48.325Z,37.93
2019-05-06T06:58:26.296Z,37.70
2019-05-06T07:01:03.139Z,36.34
2019-05-06T07:03:39.295Z,37.90
2019-05-06T07:06:23.819Z,37.55
2019-05-06T07:08:56.697Z,37.69
2019-05-06T07:11:29.515Z,37.87
2019-05-06T07:14:02.716Z,39.27
2019-05-06T07:16:35.409Z,37.95
2019-05-06T07:19:08.230Z,38.55
2019-05-06T07:21:43.544Z,38.49
2019-05-06T07:24:16.330Z,39.16
2019-05-06T07:26:53.550Z,38.58
2019-05-06T07:29:26.729Z,37.79
2019-05-06T07:31:59.835Z,38.73
2019-05-06T07:34:32.286Z,39.17
2019-05-06T07:37:04.685Z,39.33
2019-05-06T07:39:38.355Z,39.67
2019-05-06T07:42:22.712Z,38.88
2019-05-06T07:45:06.420Z,37.99
2019-05-06T07:47:42.631Z,38.10
2019-05-06T07:50:15.765Z,40.87
2019-05-06T07:53:02.379Z,37.61
2019-05-06T07:55:35.115Z,36.92
2019-05-06T07:58:08.108Z,37.27
2019-05-06T08:00:42.300Z,36.04
2019-05-06T08:03:14.980Z,36.78
2019-05-06T08:05:57.503Z,35.91
2019-05-06T08:08:23.066Z,37.40
2019-05-06T08:10:55.655Z,36.74
2019-05-06T08:13:27.936Z,34.37
2019-05-06T08:16:02.271Z,36.33
2019-05-06T08:18:34.575Z,33.64
2019-05-06T08:21:08.535Z,32.81
2019-05-06T08:23:42.887Z,33.40
2019-05-06T08:26:17.792Z,33.41
2019-05-06T08:28:52.615Z,33.24
2019-05-06T08:31:25.015Z,34.28
2019-05-06T08:33:57.556Z,34.71
2019-05-06T08:36:42.634Z,33.91
2019-05-06T08:39:15.555Z,32.49
2019-05-06T08:41:48.255Z,32.95
2019-05-06T08:44:22.479Z,33.63
2019-05-06T08:46:55.297Z,34.14
2019-05-06T08:49:29.275Z,33.51
2019-05-06T08:52:03.177Z,33.58
2019-05-06T08:54:37.875Z,32.56
2019-05-06T08:57:11.903Z,32.30
2019-05-06T08:59:44.485Z,32.42
2019-05-06T09:02:17.515Z,32.15
2019-05-06T09:04:51.815Z,31.74
2019-05-06T09:07:24.296Z,30.93
2019-05-06T09:09:56.936Z,31.01
2019-05-06T09:12:29.595Z,32.13
2019-05-06T09:15:03.505Z,32.84
2019-05-06T09:17:37.594Z,34.11
2019-05-06T09:20:12.901Z,33.46
2019-05-06T09:22:44.895Z,33.58
2019-05-06T09:25:17.595Z,33.85
2019-05-06T09:27:52.668Z,35.01
2019-05-06T09:30:43.072Z,34.34
2019-05-06T09:33:16.454Z,33.06
2019-05-06T09:35:49.195Z,32.29
2019-05-06T09:38:22.842Z,32.62
2019-05-06T09:40:55.407Z,33.47
2019-05-06T09:43:28.316Z,33.23
2019-05-06T09:46:03.555Z,34.27
2019-05-06T09:48:42.443Z,33.73
2019-05-06T09:51:15.355Z,32.71
2019-05-06T09:54:08.156Z,33.75
2019-05-06T09:56:58.798Z,30.83
2019-05-06T09:59:32.173Z,33.93
2019-05-06T10:02:05.608Z,34.22
2019-05-06T10:04:38.935Z,33.53
2019-05-06T10:07:14.295Z,33.32
2019-05-06T10:09:46.715Z,34.51
2019-05-06T10:12:19.781Z,35.09
2019-05-06T10:14:53.211Z,35.52
2019-05-06T10:17:25.903Z,34.14
2019-05-06T10:19:58.795Z,34.63
2019-05-06T10:22:32.438Z,34.28
2019-05-06T10:25:06.496Z,32.76
2019-05-06T10:27:42.212Z,34.83
2019-05-06T10:30:17.616Z,35.13
2019-05-06T10:32:52.886Z,34.78
2019-05-06T10:35:29.169Z,36.11
2019-05-06T10:38:32.815Z,36.64
2019-05-06T10:41:22.483Z,36.52
2019-05-06T10:44:42.787Z,36.99
2019-05-06T10:47:14.355Z,35.13
2019-05-06T10:49:46.857Z,35.19
2019-05-06T10:52:24.134Z,34.60
2019-05-06T10:54:57.135Z,32.10
2019-05-06T10:57:32.825Z,33.24
2019-05-06T11:00:07.866Z,33.91
2019-05-06T11:02:45.975Z,35.77
2019-05-06T11:05:19.111Z,35.99
2019-05-06T11:07:52.677Z,35.78
2019-05-06T11:10:29.528Z,35.84
2019-05-06T11:12:59.114Z,37.19
2019-05-06T11:15:33.025Z,38.16
2019-05-06T11:18:06.215Z,37.81
2019-05-06T11:20:40.093Z,38.09
2019-05-06T11:23:14.144Z,38.48
2019-05-06T11:25:46.536Z,38.28
2019-05-06T11:28:36.475Z,38.30
2019-05-06T11:31:09.374Z,39.24
2019-05-06T11:33:52.596Z,39.58
2019-05-06T11:36:29.496Z,38.88
2019-05-06T11:39:07.600Z,39.93
2019-05-06T11:41:56.487Z,40.18
2019-05-06T11:44:14.475Z,39.22
2019-05-06T11:46:46.895Z,38.50
2019-05-06T11:49:20.325Z,38.37
2019-05-06T11:51:52.599Z,37.42
2019-05-06T11:54:25.137Z,39.17
2019-05-06T11:56:58.578Z,37.94
2019-05-06T11:59:31.335Z,38.52
2019-05-06T12:02:08.275Z,38.55
2019-05-06T12:04:41.940Z,37.24
2019-05-06T12:07:15.699Z,37.71
2019-05-06T12:09:48.826Z,36.43
2019-05-06T12:12:23.343Z,37.40
2019-05-06T12:14:55.675Z,38.33
2019-05-06T12:17:28.035Z,37.02
2019-05-06T12:20:02.990Z,36.98
2019-05-06T12:22:37.795Z,37.52
2019-05-06T12:25:15.301Z,37.04
2019-05-06T12:27:49.495Z,38.06
2019-05-06T12:30:24.556Z,37.08
2019-05-06T12:33:03.238Z,36.76
2019-05-06T12:35:37.835Z,36.90
2019-05-06T12:38:26.708Z,35.88
2019-05-06T12:40:48.895Z,37.07
2019-05-06T12:43:24.436Z,37.38
2019-05-06T12:46:02.960Z,37.42
2019-05-06T12:48:43.972Z,38.27
2019-05-06T12:51:16.916Z,37.20
2019-05-06T12:53:49.395Z,35.92
2019-05-06T12:56:24.395Z,35.64
2019-05-06T12:58:57.315Z,34.54
2019-05-06T13:01:33.496Z,35.15
2019-05-06T13:04:04.831Z,34.91
2019-05-06T13:06:37.565Z,34.94
2019-05-06T13:09:12.420Z,35.21
2019-05-06T13:11:44.055Z,34.61
2019-05-06T13:14:16.500Z,34.55
2019-05-06T13:16:49.137Z,33.89
2019-05-06T13:19:22.815Z,33.98
2019-05-06T13:21:55.659Z,34.06
2019-05-06T13:24:28.156Z,34.63
2019-05-06T13:27:02.608Z,33.61
2019-05-06T13:29:35.713Z,33.94
2019-05-06T13:32:12.674Z,34.47
2019-05-06T13:34:44.958Z,34.02
2019-05-06T13:37:17.842Z,32.85
2019-05-06T13:39:52.768Z,32.13
2019-05-06T13:42:27.055Z,32.91
2019-05-06T13:44:59.456Z,33.30
2019-05-06T13:47:43.776Z,30.24
2019-05-06T13:50:22.910Z,31.44
2019-05-06T13:53:08.041Z,29.53
2019-05-06T13:55:31.096Z,30.12
2019-05-06T13:58:03.761Z,29.45
2019-05-06T14:00:37.015Z,29.29
2019-05-06T14:03:09.535Z,29.14
2019-05-06T14:05:42.579Z,28.77
2019-05-06T14:08:15.186Z,27.87
2019-05-06T14:10:56.796Z,28.73
2019-05-06T14:13:22.099Z,27.90
2019-05-06T14:15:54.675Z,27.34
2019-05-06T14:18:28.075Z,30.02
2019-05-06T14:21:02.919Z,30.31
2019-05-06T14:23:34.835Z,29.08
2019-05-06T14:26:07.415Z,28.59
2019-05-06T14:28:43.041Z,28.98
2019-05-06T14:31:17.185Z,28.52
2019-05-06T14:33:52.095Z,28.05
2019-05-06T14:36:27.542Z,27.58
2019-05-06T14:38:58.936Z,28.13
2019-05-06T14:41:32.747Z,28.40
2019-05-06T14:44:07.511Z,28.67
2019-05-06T14:46:57.192Z,27.25
2019-05-06T14:49:32.377Z,28.00
2019-05-06T14:52:06.054Z,27.22
2019-05-06T14:54:49.485Z,27.71
2019-05-06T14:57:22.928Z,28.00
2019-05-06T14:59:55.970Z,29.21
2019-05-06T15:02:28.917Z,29.26
2019-05-06T15:05:02.988Z,29.09
2019-05-06T15:07:35.965Z,28.70
2019-05-06T15:10:20.311Z,29.77
2019-05-06T15:12:43.591Z,28.88
2019-05-06T15:15:16.939Z,28.58
2019-05-06T15:17:49.476Z,28.53
2019-05-06T15:20:23.027Z,27.07
2019-05-06T15:22:56.360Z,28.89
2019-05-06T15:25:28.985Z,29.57
2019-05-06T15:28:02.545Z,29.24
2019-05-06T15:30:46.080Z,29.04
2019-05-06T15:33:22.465Z,28.99
2019-05-06T15:35:59.506Z,30.34
2019-05-06T15:38:32.603Z,30.32
2019-05-06T15:41:05.411Z,30.63
2019-05-06T15:43:38.250Z,31.07
2019-05-06T15:46:12.217Z,31.12
2019-05-06T15:48:45.030Z,32.10
2019-05-06T15:51:19.220Z,32.08
2019-05-06T15:53:52.961Z,32.00
2019-05-06T15:56:25.881Z,32.45
2019-05-06T15:58:58.310Z,33.19
2019-05-06T16:01:33.213Z,33.60
2019-05-06T16:04:05.499Z,33.96
2019-05-06T16:06:38.355Z,33.33
2019-05-06T16:09:14.219Z,33.23
2019-05-06T16:11:45.155Z,33.02
2019-05-06T16:14:17.585Z,33.27
2019-05-06T16:16:52.677Z,33.14
2019-05-06T16:19:24.964Z,33.18
2019-05-06T16:21:57.989Z,33.55
2019-05-06T16:24:35.244Z,33.42
2019-05-06T16:27:07.949Z,33.14
2019-05-06T16:29:42.888Z,33.34
2019-05-06T16:32:16.740Z,33.39
2019-05-06T16:34:49.816Z,34.02
2019-05-06T16:37:22.453Z,32.59
2019-05-06T16:39:55.015Z,32.85
2019-05-06T16:42:27.861Z,33.38
2019-05-06T16:45:06.963Z,33.32
2019-05-06T16:47:37.656Z,33.33
2019-05-06T16:50:17.375Z,33.92
2019-05-06T16:52:52.341Z,34.29
2019-05-06T16:55:28.899Z,34.22
2019-05-06T16:58:06.265Z,34.36
2019-05-06T17:00:38.870Z,34.03
2019-05-06T17:03:14.593Z,34.31
2019-05-06T17:05:52.002Z,34.71
2019-05-06T17:08:24.995Z,34.34
2019-05-06T17:10:57.786Z,34.83
2019-05-06T17:13:31.078Z,34.98
2019-05-06T17:16:03.789Z,35.69
2019-05-06T17:18:36.490Z,35.70
2019-05-06T17:21:09.201Z,34.91
2019-05-06T17:23:42.319Z,36.28
2019-05-06T17:26:15.076Z,35.56
2019-05-06T17:28:49.216Z,35.93
2019-05-06T17:31:37.135Z,36.11
2019-05-06T17:34:12.823Z,36.53
2019-05-06T17:36:46.047Z,37.11
2019-05-06T17:39:18.660Z,36.82
2019-05-06T17:41:52.192Z,37.23
2019-05-06T17:44:25.290Z,37.28
2019-05-06T17:47:02.653Z,37.87
2019-05-06T17:49:37.045Z,37.72
2019-05-06T17:52:14.226Z,37.86
2019-05-06T17:54:46.786Z,38.40
2019-05-06T17:57:19.440Z,38.70
2019-05-06T17:59:52.824Z,39.12
2019-05-06T18:02:27.202Z,40.00
2019-05-06T18:04:59.680Z,40.03
2019-05-06T18:07:32.785Z,40.96
2019-05-06T18:10:06.200Z,40.99
2019-05-06T18:12:38.956Z,41.03
2019-05-06T18:15:13.377Z,40.63
2019-05-06T18:17:46.244Z,41.48
2019-05-06T18:20:19.125Z,42.01
2019-05-06T18:22:52.502Z,42.53
2019-05-06T18:25:25.435Z,43.19
2019-05-06T18:27:58.005Z,43.04
2019-05-06T18:30:34.289Z,43.54
2019-05-06T18:33:05.287Z,43.79
2019-05-06T18:35:37.965Z,44.41
2019-05-06T18:38:10.505Z,44.73
2019-05-06T18:40:43.175Z,46.08
2019-05-06T18:43:15.905Z,46.46
2019-05-06T18:45:48.815Z,46.76
2019-05-06T18:48:22.440Z,47.03
2019-05-06T18:50:55.175Z,47.24
2019-05-06T18:53:28.945Z,46.89
2019-05-06T18:56:03.116Z,47.36
2019-05-06T18:58:36.030Z,48.19
2019-05-06T19:01:08.966Z,48.46
2019-05-06T19:03:46.461Z,49.09
2019-05-06T19:06:19.035Z,48.94
2019-05-06T19:09:02.629Z,49.36
2019-05-06T19:11:37.070Z,49.18
2019-05-06T19:14:09.656Z,49.53
2019-05-06T19:16:49.854Z,49.73
2019-05-06T19:19:16.695Z,50.31
2019-05-06T19:21:49.225Z,50.55
2019-05-06T19:24:22.669Z,51.53
2019-05-06T19:26:55.474Z,51.27
2019-05-06T19:29:28.300Z,51.38
2019-05-06T19:32:03.037Z,51.18
2019-05-06T19:34:36.240Z,52.01
2019-05-06T19:37:09.132Z,51.59
2019-05-06T19:39:43.120Z,51.87
2019-05-06T19:42:16.105Z,52.14
2019-05-06T19:44:48.806Z,52.45
2019-05-06T19:47:21.431Z,52.58
2019-05-06T19:49:54.290Z,52.31
2019-05-06T19:52:26.926Z,52.54
2019-05-06T19:55:02.924Z,52.43
2019-05-06T19:57:34.804Z,52.90
2019-05-06T20:00:09.080Z,52.75
2019-05-06T20:02:42.936Z,53.03
2019-05-06T20:05:17.505Z,53.13
2019-05-06T20:07:52.230Z,53.14
2019-05-06T20:10:26.529Z,53.38
2019-05-06T20:13:05.276Z,53.30
2019-05-06T20:15:39.055Z,53.26
2019-05-06T20:18:12.894Z,53.32
2019-05-06T20:20:45.685Z,53.35
2019-05-06T20:23:18.215Z,53.28
2019-05-06T20:25:51.926Z,52.64
2019-05-06T20:28:24.795Z,53.18
2019-05-06T20:30:57.585Z,53.09
2019-05-06T20:33:32.539Z,52.46
2019-05-06T20:36:04.499Z,53.03
2019-05-06T20:38:37.151Z,53.44
2019-05-06T20:41:09.745Z,53.36
2019-05-06T20:43:42.413Z,53.15
2019-05-06T20:46:15.020Z,53.44
2019-05-06T20:48:47.680Z,53.73
2019-05-06T20:51:21.957Z,53.80
2019-05-06T20:53:54.745Z,54.45
2019-05-06T20:56:27.521Z,54.26
2019-05-06T20:59:02.381Z,53.14
2019-05-06T21:01:34.880Z,53.41
2019-05-06T21:04:07.600Z,53.76
2019-05-06T21:06:42.418Z,53.74
2019-05-06T21:09:14.800Z,53.93
2019-05-06T21:11:47.510Z,54.18
2019-05-06T21:14:22.551Z,53.86
2019-05-06T21:16:54.720Z,54.02
2019-05-06T21:19:27.541Z,53.42
2019-05-06T21:22:02.182Z,53.64
2019-05-06T21:24:36.196Z,53.66
2019-05-06T21:27:08.821Z,53.33
2019-05-06T21:29:42.104Z,53.30
2019-05-06T21:32:14.775Z,54.44
2019-05-06T21:34:47.360Z,54.43
2019-05-06T21:37:20.461Z,54.50
2019-05-06T21:39:53.050Z,54.77
2019-05-06T21:42:25.740Z,54.64
2019-05-06T21:44:58.500Z,55.00
2019-05-06T21:47:32.542Z,55.10
2019-05-06T21:50:05.860Z,55.75
2019-05-06T21:52:42.272Z,55.57
2019-05-06T21:55:14.799Z,55.42
2019-05-06T21:57:47.074Z,55.97
2019-05-06T22:00:23.382Z,56.35
2019-05-06T22:02:57.870Z,56.27
2019-05-06T22:05:32.073Z,56.40
2019-05-06T22:08:04.900Z,56.82
2019-05-06T22:10:37.860Z,57.05
2019-05-06T22:13:12.596Z,57.69
2019-05-06T22:15:44.509Z,57.91
2019-05-06T22:18:17.045Z,58.37
2019-05-06T22:21:07.145Z,58.49
2019-05-06T22:23:55.418Z,58.71
2019-05-06T22:26:29.049Z,58.94
2019-05-06T22:29:02.159Z,58.95
2019-05-06T22:31:34.840Z,59.55
2019-05-06T22:34:07.665Z,59.81
2019-05-06T22:36:39.949Z,59.94
2019-05-06T22:39:13.566Z,60.36
2019-05-06T22:41:46.095Z,60.04
2019-05-06T22:44:18.780Z,60.18
2019-05-06T22:46:51.549Z,60.31
2019-05-06T22:49:24.824Z,60.41
2019-05-06T22:51:57.373Z,60.15
2019-05-06T22:54:31.976Z,60.14
2019-05-06T22:57:04.056Z,60.39
2019-05-06T22:59:36.975Z,60.51
2019-05-06T23:02:09.350Z,61.34
2019-05-06T23:04:43.618Z,61.35
2019-05-06T23:07:16.350Z,60.92
2019-05-06T23:09:49.500Z,61.54
2019-05-06T23:12:23.149Z,61.76
2019-05-06T23:14:55.717Z,62.18
2019-05-06T23:17:28.431Z,66.90
2019-05-06T23:20:02.322Z,63.27
2019-05-06T23:22:35.286Z,56.50
2019-05-06T23:25:08.740Z,50.87
2019-05-06T23:27:43.887Z,49.79
2019-05-06T23:30:15.730Z,50.28
2019-05-06T23:32:48.125Z,51.00
2019-05-06T23:35:21.995Z,51.41
2019-05-06T23:38:49.050Z,51.80
2019-05-06T23:42:16.194Z,52.85
2019-05-06T23:45:42.876Z,54.01
2019-05-06T23:49:09.759Z,54.54
2019-05-06T23:52:36.635Z,55.61
2019-05-06T23:56:04.080Z,56.49
2019-05-06T23:58:36.625Z,57.12
